Carson, NM (87517)

1:51 AM MDT on July 27, 2016 (GMT -0600)
Taos Municipal | | Change Station

Elev 7090 ft 36.46 °N, 105.67 °W | Updated 16 minutes ago

Overcast
Overcast
64 °F
Feels Like 64 °F
N
4
Wind Variable Wind from SSE

Today
High -- | Low -- °F
--% Chance of Precip.
Yesterday
High -- | Low -- °F
Precip. -- in
Pressure 30.34 in
Visibility 10.0 miles
Clouds Overcast 12000 ft
Dew Point 39 °F
Humidity 40%
Rainfall 0.00 in
Snow Depth Not available.
6:06 AM 8:12 PM
Last Quarter, 46% visible
METAR KSKX 270735Z AUTO 16003KT 10SM OVC120 18/04 A3034 RMK AO1
Pressure 30.34 in
Visibility 10.0 miles
Clouds Overcast 12000 ft
Dew Point 39 °F
Humidity 40%
Rainfall 0.00 in
Snow Depth Not available.
6:06 AM 8:12 PM
Last Quarter, 46% visible
METAR KSKX 270735Z AUTO 16003KT 10SM OVC120 18/04 A3034 RMK AO1

10-Day Weather Forecast

Almanac

Astronomy

Jul. 27, 2016 Rise Set
Actual Time
Civil Twilight
Nautical Twilight
Astronomical Twilight
Moon
Length of Visible Light
Length of Day
Tomorrow will be .
, % of the Moon is Illuminated

Today's Extremes

State Highs State Lows

Community

WunderPhotos

Upload Photos

1,927,818 photos uploaded!

WunderBlog® & News

Nearby

Air Quality

  Air Quality AQ Index Pollutant
Not available.

Snow Depth

Station Depth Elevation

Earthquake Activity

City Distance Mag. Time & Date
Minimum magnitude displayed is 2.5.

Coastal Water Temperatures

Place Temperature

Stations

Nearby Weather Stations

Station Location Temp. Windchill Dew Point Humidity Wind Precip. Elev Updated Type
                   

Watches & Warnings

There are currently no watches in effect.